Weather reports worldwide

Advertisment
Threave, United Kingdom (99090): temperature & dewpoint: 13.11.2019 17:00:00 - 19.11.2019 17:00:00 (GMT)Threave, United Kingdom (99090): temperature -20cm & temperature -100cm: 13.11.2019 17:00:00 - 19.11.2019 17:00:00 (GMT)Threave, United Kingdom (99090): precipitation: 13.11.2019 17:00:00 - 19.11.2019 17:00:00 (GMT)
Date & Time tt [°C] td [°C] tt -20cm [°C] tt -100cm [°C] rr [mm]
19.11.2019 17:00:00 2,1 1,0 - - 0,0
19.11.2019 16:00:00 2,0 0,7 - - 0,0
19.11.2019 15:00:00 2,2 0,7 - - 0,0
19.11.2019 14:00:00 2,2 1,2 - - 0,0
19.11.2019 13:00:00 1,5 0,6 - - 0,0
19.11.2019 12:00:00 0,9 0,4 - - 0,0
19.11.2019 11:00:00 -0,2 -0,4 - - 0,0
19.11.2019 10:00:00 -1,4 -1,6 - - 0,0
19.11.2019 09:00:00 -2,7 -3,0 3,9 7,7 0,0
19.11.2019 08:00:00 -3,2 -3,6 - - 0,0
19.11.2019 07:00:00 -3,8 -4,3 - - 0,0
19.11.2019 06:00:00 -3,9 -4,3 - - 0,0
19.11.2019 05:00:00 -4,2 -4,7 - - 0,0
19.11.2019 04:00:00 -4,7 -5,2 - - 0,0
19.11.2019 03:00:00 -5,1 -5,7 - - 0,0
19.11.2019 02:00:00 -4,8 -5,4 - - 0,0
19.11.2019 01:00:00 -4,6 -5,2 - - 0,0
19.11.2019 00:00:00 -3,3 -3,6 - - 0,0
18.11.2019 23:00:00 -3,7 -4,2 - - 0,0
18.11.2019 22:00:00 -3,4 -3,8 - - 0,0
18.11.2019 21:00:00 -3,5 -4,0 - - 0,0
18.11.2019 20:00:00 -3,1 -3,6 - - 0,0
18.11.2019 19:00:00 -2,4 -2,9 - - 0,0
18.11.2019 18:00:00 -1,4 -2,0 - - 0,0
18.11.2019 17:00:00 -0,7 -1,5 - - 0,0
18.11.2019 16:00:00 0,6 -1,0 - - 0,0
18.11.2019 15:00:00 4,0 -0,2 - - 0,0
18.11.2019 14:00:00 4,8 0,8 - - 0,0
18.11.2019 13:00:00 4,7 1,9 - - 0,0
18.11.2019 12:00:00 2,4 0,4 - - 0,0
18.11.2019 11:00:00 1,0 0,6 - - 0,0
18.11.2019 10:00:00 -0,4 -0,5 - - 0,0
18.11.2019 09:00:00 -2,9 -3,2 4,7 7,7 0,0
18.11.2019 08:00:00 -4,0 -4,5 - - 0,0
18.11.2019 07:00:00 -3,2 -3,6 - - 0,0
18.11.2019 06:00:00 -2,5 -2,8 - - 0,0
18.11.2019 05:00:00 -2,8 -3,1 - - 0,0
18.11.2019 04:00:00 -2,3 -2,6 - - 0,0
18.11.2019 03:00:00 -1,6 -1,8 - - 0,0
18.11.2019 02:00:00 -1,6 -1,9 - - 0,0
18.11.2019 01:00:00 -1,5 -1,8 - - 0,0
18.11.2019 00:00:00 -1,3 -1,6 - - 0,0
17.11.2019 23:00:00 -0,4 -0,7 - - 0,0
17.11.2019 22:00:00 -0,8 -1,3 - - 0,0
17.11.2019 21:00:00 -0,4 -0,9 - - 0,0
17.11.2019 20:00:00 0,2 -0,3 - - 0,0
17.11.2019 19:00:00 0,4 -0,2 - - 0,0
17.11.2019 18:00:00 1,1 0,3 - - 0,0
17.11.2019 17:00:00 2,2 0,8 - - 0,0
17.11.2019 16:00:00 4,9 1,8 - - 0,0
17.11.2019 15:00:00 7,2 3,1 - - 0,0
17.11.2019 14:00:00 7,3 4,2 - - 0,0
17.11.2019 13:00:00 6,6 4,4 - - 0,0
17.11.2019 12:00:00 4,9 3,5 - - 0,0
17.11.2019 11:00:00 4,4 3,6 - - 0,0
17.11.2019 10:00:00 3,5 3,3 - - 0,0
17.11.2019 09:00:00 2,5 2,3 5,0 8,0 0,0
17.11.2019 08:00:00 1,9 1,7 - - 0,0
17.11.2019 07:00:00 2,2 1,9 - - 0,0
17.11.2019 06:00:00 2,0 1,6 - - 0,0
17.11.2019 05:00:00 2,5 2,2 - - 0,0
17.11.2019 04:00:00 2,9 2,6 - - 0,0
17.11.2019 03:00:00 3,0 2,6 - - 0,0
17.11.2019 02:00:00 3,4 3,0 - - 0,0
17.11.2019 01:00:00 3,7 3,2 - - 0,0
17.11.2019 00:00:00 3,9 3,4 - - 0,2
16.11.2019 23:00:00 3,9 3,4 - - 0,0
16.11.2019 22:00:00 4,2 3,6 - - 0,0
16.11.2019 21:00:00 4,0 3,4 - - 0,0
16.11.2019 20:00:00 3,8 3,2 - - 0,0
16.11.2019 19:00:00 3,7 3,2 - - 0,0
16.11.2019 18:00:00 3,7 2,9 - - 0,0
16.11.2019 17:00:00 4,3 3,1 - - 0,0
16.11.2019 16:00:00 5,7 3,6 - - 0,0
16.11.2019 15:00:00 6,9 4,3 - - 0,0
16.11.2019 14:00:00 7,3 5,0 - - 0,0
16.11.2019 13:00:00 6,8 4,6 - - 0,0
16.11.2019 12:00:00 6,2 3,9 - - 0,0
16.11.2019 11:00:00 6,1 3,8 - - 0,0
16.11.2019 10:00:00 4,5 3,1 - - 0,0
16.11.2019 09:00:00 3,7 2,4 4,7 8,0 0,0
16.11.2019 08:00:00 3,1 2,0 - - 0,0
16.11.2019 07:00:00 2,8 2,0 - - 0,0
16.11.2019 06:00:00 2,7 2,1 - - 0,2
16.11.2019 05:00:00 1,5 0,7 - - 0,0
16.11.2019 04:00:00 2,6 2,0 - - 0,0
16.11.2019 03:00:00 2,4 1,1 - - 0,0
16.11.2019 02:00:00 3,4 2,1 - - 0,0
16.11.2019 01:00:00 3,9 2,6 - - 0,0
16.11.2019 00:00:00 4,5 2,8 - - 0,0
15.11.2019 23:00:00 5,0 3,0 - - 0,0
15.11.2019 22:00:00 4,4 2,8 - - 0,0
15.11.2019 21:00:00 4,1 2,9 - - 0,0
15.11.2019 20:00:00 4,6 3,2 - - 0,0
15.11.2019 19:00:00 4,6 3,2 - - 0,0
15.11.2019 18:00:00 5,3 3,6 - - 0,0
15.11.2019 17:00:00 6,1 4,1 - - 0,0
15.11.2019 16:00:00 6,2 3,7 - - 0,0
15.11.2019 15:00:00 7,2 3,9 - - 0,0
15.11.2019 14:00:00 7,7 3,7 - - 0,0
15.11.2019 13:00:00 7,2 3,4 - - 0,0
15.11.2019 12:00:00 6,6 3,6 - - 0,0
15.11.2019 11:00:00 6,2 2,9 - - 0,0
15.11.2019 10:00:00 4,7 2,1 - - 0,0
15.11.2019 09:00:00 2,9 1,7 4,2 8,0 0,0
15.11.2019 08:00:00 3,2 1,3 - - 0,0
15.11.2019 07:00:00 3,1 0,9 - - 0,0
15.11.2019 06:00:00 3,3 0,9 - - 0,0
15.11.2019 05:00:00 2,9 0,1 - - 0,0
15.11.2019 04:00:00 2,9 0,2 - - 0,0
15.11.2019 03:00:00 2,6 0,3 - - 0,0
15.11.2019 02:00:00 1,3 -1,2 - - 0,0
15.11.2019 01:00:00 1,6 -1,4 - - 0,0
15.11.2019 00:00:00 1,4 -1,0 - - 0,0
14.11.2019 23:00:00 1,2 -1,4 - - 0,0
14.11.2019 22:00:00 0,1 -1,8 - - 0,0
14.11.2019 21:00:00 -0,3 -2,7 - - 0,0
14.11.2019 20:00:00 1,7 -1,3 - - 0,0
14.11.2019 19:00:00 1,4 -1,3 - - 0,0
14.11.2019 18:00:00 1,2 -1,1 - - 0,0
14.11.2019 17:00:00 2,4 -0,6 - - 0,0
14.11.2019 16:00:00 3,2 -0,4 - - 0,0
14.11.2019 15:00:00 4,5 -0,1 - - 0,0
14.11.2019 14:00:00 5,3 0,1 - - 0,0
14.11.2019 13:00:00 4,7 -0,5 - - 0,0
14.11.2019 12:00:00 4,2 -0,3 - - 0,0
14.11.2019 11:00:00 3,3 0,3 - - 0,0
14.11.2019 10:00:00 2,1 0,9 - - 0,0
14.11.2019 09:00:00 0,8 -0,4 4,7 8,0 0,0
14.11.2019 08:00:00 -0,3 -0,7 - - 0,0
14.11.2019 07:00:00 -1,2 -1,4 - - 0,0
14.11.2019 06:00:00 -0,9 -1,1 - - 0,0
14.11.2019 05:00:00 -1,2 -1,5 - - 0,0
14.11.2019 04:00:00 -0,5 -0,9 - - 0,0
14.11.2019 03:00:00 -0,4 -0,7 - - 0,0
14.11.2019 02:00:00 -1,2 -2,0 - - 0,2
14.11.2019 01:00:00 0,4 -0,5 - - 0,0
14.11.2019 00:00:00 1,0 0,1 - - 0,0
13.11.2019 23:00:00 0,9 0,2 - - 0,0
13.11.2019 22:00:00 1,0 0,4 - - 0,0
13.11.2019 21:00:00 1,2 0,6 - - 0,0
13.11.2019 20:00:00 2,1 1,5 - - 0,0
13.11.2019 19:00:00 2,4 1,7 - - 0,0
13.11.2019 18:00:00 2,9 2,5 - - 0,0
13.11.2019 17:00:00 3,1 2,7 - - 0,0

tt = temperature
td = dewpoint
tt -20cm = temperature -20cm
tt -100cm = temperature -100cm
rr = precipitation

Next stations